createdAt,value
2023-04-19T00:00:58.152Z,960.1843
2023-04-19T00:01:59.624Z,960.1808
2023-04-19T00:03:01.332Z,960.1804
2023-04-19T00:04:03.060Z,960.1808
2023-04-19T00:05:05.351Z,960.1796
2023-04-19T00:06:07.097Z,960.1761
2023-04-19T00:07:08.478Z,960.1808
2023-04-19T00:08:09.938Z,960.1656
2023-04-19T00:09:11.304Z,960.1548
2023-04-19T00:10:12.701Z,960.1548
2023-04-19T00:11:14.092Z,960.1708
2023-04-19T00:12:15.476Z,960.1526
2023-04-19T00:13:16.875Z,960.1496
2023-04-19T00:14:18.389Z,960.1526
2023-04-19T00:15:19.918Z,960.1522
2023-04-19T00:16:21.389Z,960.1483
2023-04-19T00:17:22.842Z,960.1382
2023-04-19T00:18:24.329Z,960.1422
2023-04-19T00:19:25.749Z,960.1300
2023-04-19T00:20:27.408Z,960.1191
2023-04-19T00:21:29.080Z,960.1035
2023-04-19T00:22:30.526Z,960.0917
2023-04-19T00:23:31.997Z,960.0792
2023-04-19T00:24:33.436Z,960.0787
2023-04-19T00:25:34.890Z,960.0761
2023-04-19T00:26:36.282Z,960.0652
2023-04-19T00:27:37.638Z,960.0609
2023-04-19T00:28:39.034Z,960.0639
2023-04-19T00:29:40.422Z,960.0626
2023-04-19T00:30:41.855Z,960.0526
2023-04-19T00:31:43.255Z,960.0609
2023-04-19T00:32:44.674Z,960.0630
2023-04-19T00:33:46.027Z,960.0692
2023-04-19T00:34:47.414Z,960.0722
2023-04-19T00:35:48.753Z,960.0661
2023-04-19T00:36:50.144Z,960.0670
2023-04-19T00:37:51.548Z,960.0718
2023-04-19T00:38:52.959Z,960.0818
2023-04-19T00:39:54.344Z,960.0787
2023-04-19T00:40:55.730Z,960.0870
2023-04-19T00:41:57.072Z,960.0753
2023-04-19T00:42:58.478Z,960.0743
2023-04-19T00:43:59.841Z,960.0591
2023-04-19T00:45:01.409Z,960.0557
2023-04-19T00:46:02.838Z,960.0465
2023-04-19T00:47:04.226Z,960.0387
2023-04-19T00:48:05.865Z,960.0300
2023-04-19T00:49:07.213Z,960.0196
2023-04-19T00:50:08.610Z,960.0131
2023-04-19T00:51:09.983Z,960.0082
2023-04-19T00:52:11.400Z,959.9939
2023-04-19T00:53:12.801Z,959.9930
2023-04-19T00:54:14.443Z,959.9865
2023-04-19T00:55:16.298Z,959.9865
2023-04-19T00:56:17.697Z,959.9756
2023-04-19T00:57:19.060Z,959.9713
2023-04-19T00:58:20.412Z,959.9543
2023-04-19T00:59:21.756Z,959.9553
2023-04-19T01:00:23.145Z,959.9413
2023-04-19T01:01:24.510Z,959.9404
2023-04-19T01:02:25.930Z,959.9308
2023-04-19T01:03:27.889Z,959.9226
2023-04-19T01:04:29.734Z,959.9247
2023-04-19T01:05:31.153Z,959.9230
2023-04-19T01:06:32.508Z,959.9226
2023-04-19T01:07:33.944Z,959.9208
2023-04-19T01:08:35.309Z,959.9095
2023-04-19T01:09:36.708Z,959.9061
2023-04-19T01:10:38.045Z,959.9078
2023-04-19T01:11:40.782Z,959.9017
2023-04-19T01:12:41.436Z,959.8969
2023-04-19T01:13:42.803Z,959.8752
2023-04-19T01:14:44.202Z,959.8696
2023-04-19T01:15:45.620Z,959.8574
2023-04-19T01:16:46.995Z,959.8539
2023-04-19T01:17:48.399Z,959.8439
2023-04-19T01:18:49.808Z,959.8344
2023-04-19T01:19:51.202Z,959.8322
2023-04-19T01:20:52.589Z,959.8226
2023-04-19T01:21:54.038Z,959.8213
2023-04-19T01:22:55.393Z,959.8157
2023-04-19T01:23:56.973Z,959.8047
2023-04-19T01:24:58.365Z,959.7987
2023-04-19T01:25:59.885Z,959.7852
2023-04-19T01:27:01.317Z,959.7805
2023-04-19T01:28:02.814Z,959.7748
2023-04-19T01:29:04.230Z,959.7831
2023-04-19T01:30:05.573Z,959.7709
2023-04-19T01:31:06.960Z,959.7739
2023-04-19T01:32:08.277Z,959.7700
2023-04-19T01:33:09.618Z,959.7618
2023-04-19T01:34:10.983Z,959.7543
2023-04-19T01:35:12.328Z,959.7531
2023-04-19T01:36:13.673Z,959.7539
2023-04-19T01:37:15.010Z,959.7491
2023-04-19T01:38:16.497Z,959.7487
2023-04-19T01:39:18.870Z,959.7404
2023-04-19T01:40:20.301Z,959.7283
2023-04-19T01:41:21.643Z,959.7200
2023-04-19T01:42:23.101Z,959.7065
2023-04-19T01:43:24.522Z,959.6926
2023-04-19T01:44:25.913Z,959.6818
2023-04-19T01:45:27.315Z,959.6708
2023-04-19T01:46:28.888Z,959.6713
2023-04-19T01:47:30.308Z,959.6622
2023-04-19T01:48:31.758Z,959.6591
2023-04-19T01:49:33.146Z,959.6544
2023-04-19T01:50:34.591Z,959.6587
2023-04-19T01:51:36.013Z,959.6517
2023-04-19T01:52:37.485Z,959.6496
2023-04-19T01:53:38.920Z,959.6509
2023-04-19T01:54:40.287Z,959.6500
2023-04-19T01:55:41.742Z,959.6457
2023-04-19T01:56:43.209Z,959.6370
2023-04-19T01:57:44.609Z,959.6257
2023-04-19T01:58:46.057Z,959.6035
2023-04-19T01:59:47.430Z,959.5874
2023-04-19T02:00:48.919Z,959.5887
2023-04-19T02:01:50.348Z,959.5865
2023-04-19T02:02:51.989Z,959.5831
2023-04-19T02:03:53.598Z,959.5753
2023-04-19T02:04:55.526Z,959.5804
2023-04-19T02:05:56.963Z,959.5800
2023-04-19T02:06:58.431Z,959.5804
2023-04-19T02:07:59.876Z,959.5874
2023-04-19T02:09:01.258Z,959.5848
2023-04-19T02:10:02.773Z,959.5831
2023-04-19T02:11:04.221Z,959.5800
2023-04-19T02:12:05.623Z,959.5770
2023-04-19T02:13:07.139Z,959.5692
2023-04-19T02:14:08.542Z,959.5674
2023-04-19T02:15:09.969Z,959.5661
2023-04-19T02:16:11.550Z,959.5648
2023-04-19T02:17:13.037Z,959.5652
2023-04-19T02:18:14.423Z,959.5692
2023-04-19T02:19:15.875Z,959.5682
2023-04-19T02:20:17.299Z,959.5630
2023-04-19T02:21:18.724Z,959.5500
2023-04-19T02:22:20.147Z,959.5378
2023-04-19T02:23:21.608Z,959.5344
2023-04-19T02:24:23.014Z,959.5309
2023-04-19T02:25:24.467Z,959.5235
2023-04-19T02:26:26.030Z,959.5231
2023-04-19T02:27:27.489Z,959.5131
2023-04-19T02:28:28.888Z,959.5070
2023-04-19T02:29:30.382Z,959.5043
2023-04-19T02:30:31.858Z,959.5052
2023-04-19T02:31:33.300Z,959.5018
2023-04-19T02:32:34.790Z,959.5022
2023-04-19T02:33:36.127Z,959.5022
2023-04-19T02:34:37.599Z,959.5052
2023-04-19T02:35:38.966Z,959.5061
2023-04-19T02:36:40.347Z,959.5052
2023-04-19T02:37:41.829Z,959.5057
2023-04-19T02:38:43.190Z,959.5039
2023-04-19T02:39:44.595Z,959.5148
2023-04-19T02:40:46.035Z,959.5252
2023-04-19T02:41:47.558Z,959.5187
2023-04-19T02:42:48.963Z,959.5248
2023-04-19T02:43:50.411Z,959.5313
2023-04-19T02:44:51.995Z,959.5309
2023-04-19T02:45:53.476Z,959.5257
2023-04-19T02:46:54.893Z,959.5226
2023-04-19T02:47:56.369Z,959.5274
2023-04-19T02:48:57.939Z,959.5239
2023-04-19T02:49:59.328Z,959.5248
2023-04-19T02:51:00.773Z,959.5248
2023-04-19T02:52:02.241Z,959.5253
2023-04-19T02:53:03.785Z,959.5278
2023-04-19T02:54:05.273Z,959.5274
2023-04-19T02:55:06.659Z,959.5196
2023-04-19T02:56:08.073Z,959.5213
2023-04-19T02:57:09.526Z,959.5218
2023-04-19T02:58:10.921Z,959.5261
2023-04-19T02:59:12.370Z,959.5270
2023-04-19T03:00:13.861Z,959.5253
2023-04-19T03:01:15.643Z,959.5196
2023-04-19T03:02:17.118Z,959.5218
2023-04-19T03:03:18.593Z,959.5143
2023-04-19T03:04:19.998Z,959.5082
2023-04-19T03:05:21.445Z,959.5070
2023-04-19T03:06:22.858Z,959.5096
2023-04-19T03:07:24.378Z,959.5039
2023-04-19T03:08:25.799Z,959.4939
2023-04-19T03:09:27.227Z,959.4865
2023-04-19T03:10:28.685Z,959.4830
2023-04-19T03:11:30.091Z,959.4752
2023-04-19T03:12:31.473Z,959.4747
2023-04-19T03:13:32.968Z,959.4713
2023-04-19T03:14:34.362Z,959.4695
2023-04-19T03:15:35.815Z,959.4665
2023-04-19T03:16:37.252Z,959.4669
2023-04-19T03:17:38.697Z,959.4543
2023-04-19T03:18:40.131Z,959.4500
2023-04-19T03:19:41.609Z,959.4474
2023-04-19T03:20:43.058Z,959.4404
2023-04-19T03:21:44.519Z,959.4361
2023-04-19T03:22:45.982Z,959.4326
2023-04-19T03:23:47.380Z,959.4274
2023-04-19T03:24:48.787Z,959.4247
2023-04-19T03:25:50.250Z,959.4239
2023-04-19T03:26:51.725Z,959.4152
2023-04-19T03:27:53.155Z,959.4130
2023-04-19T03:28:54.660Z,959.4009
2023-04-19T03:29:56.179Z,959.3957
2023-04-19T03:30:57.676Z,959.3939
2023-04-19T03:31:59.113Z,959.3878
2023-04-19T03:33:00.520Z,959.3865
2023-04-19T03:34:01.940Z,959.3882
2023-04-19T03:35:03.348Z,959.3861
2023-04-19T03:36:04.797Z,959.3809
2023-04-19T03:37:06.190Z,959.3735
2023-04-19T03:38:07.632Z,959.3757
2023-04-19T03:39:09.082Z,959.3713
2023-04-19T03:40:10.503Z,959.3700
2023-04-19T03:41:11.949Z,959.3639
2023-04-19T03:42:13.420Z,959.3569
2023-04-19T03:43:14.839Z,959.3483
2023-04-19T03:44:16.432Z,959.3500
2023-04-19T03:45:18.194Z,959.3535
2023-04-19T03:46:19.649Z,959.3461
2023-04-19T03:47:21.253Z,959.3365
2023-04-19T03:48:22.837Z,959.3361
2023-04-19T03:49:24.294Z,959.3213
2023-04-19T03:50:25.737Z,959.3218
2023-04-19T03:51:27.158Z,959.3104
2023-04-19T03:52:28.567Z,959.3047
2023-04-19T03:53:29.970Z,959.3039
2023-04-19T03:54:31.375Z,959.2930
2023-04-19T03:55:32.841Z,959.2957
2023-04-19T03:56:34.438Z,959.2952
2023-04-19T03:57:35.863Z,959.2869
2023-04-19T03:58:37.381Z,959.2852
2023-04-19T03:59:38.800Z,959.2800
2023-04-19T04:00:40.258Z,959.2735
2023-04-19T04:01:41.895Z,959.2639
2023-04-19T04:02:43.837Z,959.2513
2023-04-19T04:03:45.634Z,959.2500
2023-04-19T04:04:47.486Z,959.2461
2023-04-19T04:05:48.929Z,959.2352
2023-04-19T04:06:50.406Z,959.2378
2023-04-19T04:07:51.808Z,959.2426
2023-04-19T04:08:53.199Z,959.2439
2023-04-19T04:09:54.618Z,959.2465
2023-04-19T04:10:56.026Z,959.2539
2023-04-19T04:11:57.410Z,959.2552
2023-04-19T04:12:58.899Z,959.2539
2023-04-19T04:14:00.392Z,959.2513
2023-04-19T04:15:01.863Z,959.2469
2023-04-19T04:16:03.290Z,959.2408
2023-04-19T04:17:04.716Z,959.2400
2023-04-19T04:18:08.566Z,959.2365
2023-04-19T04:19:07.910Z,959.2386
2023-04-19T04:20:09.328Z,959.2457
2023-04-19T04:21:10.717Z,959.2487
2023-04-19T04:22:12.163Z,959.2482
2023-04-19T04:23:13.566Z,959.2596
2023-04-19T04:24:15.144Z,959.2696
2023-04-19T04:25:16.686Z,959.2735
2023-04-19T04:26:18.086Z,959.2770
2023-04-19T04:27:19.584Z,959.2869
2023-04-19T04:28:21.274Z,959.2878
2023-04-19T04:29:22.735Z,959.2930
2023-04-19T04:30:26.554Z,959.2930
2023-04-19T04:31:24.258Z,959.2971
2023-04-19T04:32:25.750Z,959.2957
2023-04-19T04:33:27.232Z,959.2965
2023-04-19T04:34:28.724Z,959.3052
2023-04-19T04:35:30.199Z,959.3035
2023-04-19T04:36:31.645Z,959.3139
2023-04-19T04:37:33.084Z,959.3278
2023-04-19T04:38:34.576Z,959.3357
2023-04-19T04:39:35.978Z,959.3396
2023-04-19T04:40:37.383Z,959.3508
2023-04-19T04:41:38.828Z,959.3500
2023-04-19T04:42:40.295Z,959.3635
2023-04-19T04:43:41.944Z,959.3739
2023-04-19T04:44:43.381Z,959.3874
2023-04-19T04:45:44.862Z,959.4056
2023-04-19T04:46:46.331Z,959.4126
2023-04-19T04:47:47.806Z,959.4318
2023-04-19T04:48:49.279Z,959.4335
2023-04-19T04:49:50.696Z,959.4374
2023-04-19T04:50:52.113Z,959.4378
2023-04-19T04:51:53.560Z,959.4247
2023-04-19T04:52:54.972Z,959.4191
2023-04-19T04:53:56.516Z,959.4174
2023-04-19T04:54:57.978Z,959.4187
2023-04-19T04:55:59.672Z,959.4222
2023-04-19T04:57:01.189Z,959.4265
2023-04-19T04:58:02.614Z,959.4274
2023-04-19T04:59:04.000Z,959.4257
2023-04-19T05:00:05.435Z,959.4243
2023-04-19T05:01:06.888Z,959.4265
2023-04-19T05:02:08.469Z,959.4300
2023-04-19T05:03:10.060Z,959.4257
2023-04-19T05:04:11.587Z,959.4257
2023-04-19T05:05:13.086Z,959.4261
2023-04-19T05:06:14.501Z,959.4343
2023-04-19T05:07:16.173Z,959.4435
2023-04-19T05:08:17.594Z,959.4457
2023-04-19T05:09:18.998Z,959.4470
2023-04-19T05:10:20.457Z,959.4465
2023-04-19T05:11:21.885Z,959.4461
2023-04-19T05:12:23.367Z,959.4431
2023-04-19T05:13:24.829Z,959.4422
2023-04-19T05:14:26.280Z,959.4352
2023-04-19T05:15:27.709Z,959.4287
2023-04-19T05:16:29.310Z,959.4208
2023-04-19T05:17:30.825Z,959.4196
2023-04-19T05:18:32.213Z,959.4174
2023-04-19T05:19:33.654Z,959.4122
2023-04-19T05:20:35.089Z,959.4095
2023-04-19T05:21:36.577Z,959.4100
2023-04-19T05:22:37.978Z,959.4087
2023-04-19T05:23:39.453Z,959.4156
2023-04-19T05:24:42.375Z,959.4113
2023-04-19T05:25:41.485Z,959.4200
2023-04-19T05:26:42.883Z,959.4222
2023-04-19T05:27:44.308Z,959.4239
2023-04-19T05:28:45.754Z,959.4178
2023-04-19T05:29:47.175Z,959.4109
2023-04-19T05:30:48.660Z,959.4139
2023-04-19T05:31:50.101Z,959.4178
2023-04-19T05:32:51.554Z,959.4165
2023-04-19T05:33:53.047Z,959.4187
2023-04-19T05:34:54.529Z,959.4152
2023-04-19T05:35:55.947Z,959.4161
2023-04-19T05:36:57.397Z,959.4208
2023-04-19T05:37:58.821Z,959.4361
2023-04-19T05:39:00.220Z,959.4496
2023-04-19T05:40:01.667Z,959.4669
2023-04-19T05:41:03.048Z,959.4722
2023-04-19T05:42:04.462Z,959.4756
2023-04-19T05:43:05.870Z,959.4704
2023-04-19T05:44:07.281Z,959.4713
2023-04-19T05:45:08.679Z,959.4726
2023-04-19T05:46:10.165Z,959.4722
2023-04-19T05:47:11.596Z,959.4835
2023-04-19T05:48:12.987Z,959.4939
2023-04-19T05:49:14.450Z,959.4982
2023-04-19T05:50:15.845Z,959.5048
2023-04-19T05:51:17.284Z,959.5143
2023-04-19T05:52:18.686Z,959.5192
2023-04-19T05:53:20.097Z,959.5139
2023-04-19T05:54:21.505Z,959.5174
2023-04-19T05:55:23.009Z,959.5096
2023-04-19T05:56:24.440Z,959.5035
2023-04-19T05:57:25.825Z,959.5048
2023-04-19T05:58:27.254Z,959.5052
2023-04-19T05:59:28.683Z,959.4978
2023-04-19T06:00:30.083Z,959.4991
2023-04-19T06:01:31.514Z,959.4996
2023-04-19T06:02:33.133Z,959.5065
2023-04-19T06:03:34.953Z,959.5135
2023-04-19T06:04:37.375Z,959.5213
2023-04-19T06:05:39.378Z,959.5218
2023-04-19T06:06:40.801Z,959.5235
2023-04-19T06:07:47.246Z,959.5309
2023-04-19T06:08:44.282Z,959.5276
2023-04-19T06:09:45.693Z,959.5296
2023-04-19T06:10:54.510Z,959.5361
2023-04-19T06:11:51.201Z,959.5443
2023-04-19T06:12:50.518Z,959.5573
2023-04-19T06:13:51.970Z,959.5600
2023-04-19T06:14:53.399Z,959.5600
2023-04-19T06:15:54.919Z,959.5618
2023-04-19T06:16:56.304Z,959.5652
2023-04-19T06:17:59.776Z,959.5735
2023-04-19T06:18:58.881Z,959.5691
2023-04-19T06:20:00.365Z,959.5774
2023-04-19T06:21:01.775Z,959.5748
2023-04-19T06:22:03.194Z,959.5782
2023-04-19T06:23:04.614Z,959.5761
2023-04-19T06:24:06.076Z,959.5770
2023-04-19T06:25:07.521Z,959.5870
2023-04-19T06:26:09.047Z,959.5909
2023-04-19T06:27:10.479Z,959.6035
2023-04-19T06:28:11.882Z,959.6104
2023-04-19T06:29:13.277Z,959.6222
2023-04-19T06:30:14.706Z,959.6287
2023-04-19T06:31:16.099Z,959.6326
2023-04-19T06:32:17.580Z,959.6361
2023-04-19T06:33:18.995Z,959.6418
2023-04-19T06:34:20.412Z,959.6382
2023-04-19T06:35:21.811Z,959.6348
2023-04-19T06:36:23.239Z,959.6304
2023-04-19T06:37:24.691Z,959.6339
2023-04-19T06:38:26.130Z,959.6300
2023-04-19T06:39:27.548Z,959.6257
2023-04-19T06:40:29.036Z,959.6304
2023-04-19T06:41:30.530Z,959.6339
2023-04-19T06:42:31.982Z,959.6265
2023-04-19T06:43:33.398Z,959.6191
2023-04-19T06:44:34.943Z,959.6078
2023-04-19T06:45:36.456Z,959.6082
2023-04-19T06:46:37.894Z,959.6139
2023-04-19T06:47:39.366Z,959.6191
2023-04-19T06:48:40.803Z,959.6248
2023-04-19T06:49:42.369Z,959.6139
2023-04-19T06:50:43.835Z,959.6174
2023-04-19T06:51:45.278Z,959.6235
2023-04-19T06:52:46.751Z,959.6357
2023-04-19T06:53:48.202Z,959.6426
2023-04-19T06:54:49.816Z,959.6500
2023-04-19T06:55:51.261Z,959.6622
2023-04-19T06:56:52.727Z,959.6718
2023-04-19T06:57:54.229Z,959.6778
2023-04-19T06:58:55.680Z,959.6765
2023-04-19T06:59:57.154Z,959.6882
2023-04-19T07:00:58.674Z,959.6957
2023-04-19T07:02:00.213Z,959.6943
2023-04-19T07:03:01.869Z,959.6953
2023-04-19T07:04:03.874Z,959.6935
2023-04-19T07:05:06.093Z,959.7017
2023-04-19T07:06:07.519Z,959.7057
2023-04-19T07:07:08.942Z,959.7100
2023-04-19T07:08:10.394Z,959.7152
2023-04-19T07:09:11.836Z,959.7109
2023-04-19T07:10:13.318Z,959.7170
2023-04-19T07:11:14.756Z,959.7252
2023-04-19T07:12:16.266Z,959.7287
2023-04-19T07:13:17.718Z,959.7352
2023-04-19T07:14:19.334Z,959.7300
2023-04-19T07:15:20.797Z,959.7287
2023-04-19T07:16:22.464Z,959.7278
2023-04-19T07:17:24.010Z,959.7130
2023-04-19T07:18:25.565Z,959.7061
2023-04-19T07:19:27.059Z,959.7009
2023-04-19T07:20:28.720Z,959.6900
2023-04-19T07:21:30.248Z,959.6813
2023-04-19T07:22:31.774Z,959.6735
2023-04-19T07:23:33.243Z,959.6617
2023-04-19T07:24:34.663Z,959.6535
2023-04-19T07:25:36.125Z,959.6531
2023-04-19T07:26:37.630Z,959.6517
2023-04-19T07:27:39.043Z,959.6544
2023-04-19T07:28:40.509Z,959.6583
2023-04-19T07:29:41.989Z,959.6587
2023-04-19T07:30:43.450Z,959.6548
2023-04-19T07:31:44.947Z,959.6496
2023-04-19T07:32:46.555Z,959.6418
2023-04-19T07:33:48.094Z,959.6378
2023-04-19T07:34:49.561Z,959.6378
2023-04-19T07:35:51.221Z,959.6357
2023-04-19T07:36:52.714Z,959.6270
2023-04-19T07:37:57.264Z,959.6284
2023-04-19T07:38:58.901Z,959.6300
2023-04-19T07:40:01.238Z,959.6338
2023-04-19T07:41:02.751Z,959.6357
2023-04-19T07:42:04.259Z,959.6287
2023-04-19T07:43:05.796Z,959.6235
2023-04-19T07:44:07.356Z,959.6261
2023-04-19T07:45:08.809Z,959.6282
2023-04-19T07:46:10.299Z,959.6309
2023-04-19T07:47:11.758Z,959.6318
2023-04-19T07:48:13.251Z,959.6382
2023-04-19T07:49:14.713Z,959.6439
2023-04-19T07:50:16.297Z,959.6357
2023-04-19T07:51:17.831Z,959.6365
2023-04-19T07:52:19.272Z,959.6287
2023-04-19T07:53:20.721Z,959.6222
2023-04-19T07:54:22.137Z,959.6104
2023-04-19T07:55:23.648Z,959.6061
2023-04-19T07:56:25.091Z,959.5965
2023-04-19T07:57:26.618Z,959.5969
2023-04-19T07:58:28.090Z,959.5956
2023-04-19T07:59:29.602Z,959.6052
2023-04-19T08:00:31.023Z,959.6091
2023-04-19T08:01:32.840Z,959.6087
2023-04-19T08:02:34.787Z,959.6118
2023-04-19T08:03:36.481Z,959.6074
2023-04-19T08:04:38.548Z,959.5978
2023-04-19T08:05:40.417Z,959.5948
2023-04-19T08:06:41.975Z,959.5978
2023-04-19T08:07:43.478Z,959.5944
2023-04-19T08:08:44.930Z,959.5961
2023-04-19T08:09:46.476Z,959.6052
2023-04-19T08:10:47.932Z,959.6096
2023-04-19T08:11:49.447Z,959.5987
2023-04-19T08:14:04.558Z,959.5867
2023-04-19T08:15:02.661Z,959.5771
2023-04-19T08:17:22.050Z,959.5818
2023-04-19T08:18:01.119Z,959.5876
2023-04-19T08:19:02.608Z,959.5892
2023-04-19T08:20:04.100Z,959.5813
2023-04-19T08:21:05.538Z,959.5778
2023-04-19T08:22:07.014Z,959.5761
2023-04-19T08:23:20.363Z,959.5822
2023-04-19T08:24:10.483Z,959.5824
2023-04-19T08:25:11.900Z,959.5770
2023-04-19T08:26:13.378Z,959.5774
2023-04-19T08:27:14.881Z,959.5774
2023-04-19T08:28:16.354Z,959.5782
2023-04-19T08:29:17.945Z,959.5865
2023-04-19T08:30:19.595Z,959.5900
2023-04-19T08:31:21.056Z,959.5883
2023-04-19T08:32:22.552Z,959.5900
2023-04-19T08:33:24.040Z,959.5800
2023-04-19T08:34:25.469Z,959.5961
2023-04-19T08:35:26.908Z,959.5909
2023-04-19T08:36:37.104Z,959.5852
2023-04-19T08:37:30.451Z,959.5814
2023-04-19T08:38:31.975Z,959.5839
2023-04-19T08:39:34.262Z,959.5753
2023-04-19T08:40:33.545Z,959.5841
2023-04-19T08:41:34.999Z,959.5839
2023-04-19T08:42:37.249Z,959.5853
2023-04-19T08:43:40.486Z,959.5770
2023-04-19T08:44:53.795Z,959.5746
2023-04-19T08:45:43.007Z,959.5629
2023-04-19T08:46:44.421Z,959.5574
2023-04-19T08:47:58.665Z,959.5582
2023-04-19T08:48:47.942Z,959.5481
2023-04-19T08:49:56.300Z,959.5400
2023-04-19T08:51:04.446Z,959.5343
2023-04-19T08:51:53.494Z,959.5395
2023-04-19T08:52:59.053Z,959.5305
2023-04-19T08:53:56.975Z,959.5281
2023-04-19T08:54:58.471Z,959.5200
2023-04-19T08:56:10.023Z,959.5153
2023-04-19T08:57:01.958Z,959.5034
2023-04-19T08:58:04.197Z,959.5004
2023-04-19T08:59:19.253Z,959.4954
2023-04-19T09:00:06.619Z,959.4981
2023-04-19T09:01:08.301Z,959.4930
2023-04-19T09:02:08.733Z,959.4863
2023-04-19T09:03:10.646Z,959.4887
2023-04-19T09:05:13.378Z,959.4757
2023-04-19T09:06:15.293Z,959.4769
2023-04-19T09:07:16.842Z,959.4683
2023-04-19T09:08:18.297Z,959.4591
2023-04-19T09:10:21.576Z,959.4363
2023-04-19T09:11:23.085Z,959.4243
2023-04-19T09:12:24.537Z,959.4048
2023-04-19T09:13:26.032Z,959.3835
2023-04-19T09:14:27.467Z,959.3635
2023-04-19T09:15:28.940Z,959.3613
2023-04-19T09:16:30.414Z,959.3574
2023-04-19T09:17:31.888Z,959.3504
2023-04-19T09:18:35.933Z,959.3465
2023-04-19T09:19:35.372Z,959.3367
2023-04-19T09:20:36.840Z,959.3392
2023-04-19T09:21:38.270Z,959.3344
2023-04-19T09:22:39.684Z,959.3378
2023-04-19T09:23:41.148Z,959.3344
2023-04-19T09:26:06.280Z,959.3387
2023-04-19T09:26:46.233Z,959.3314
2023-04-19T09:27:47.669Z,959.3313
2023-04-19T09:28:49.081Z,959.3200
2023-04-19T09:29:50.496Z,959.2979
2023-04-19T09:31:00.668Z,959.2817
2023-04-19T09:31:54.092Z,959.2895
2023-04-19T09:32:55.568Z,959.2926
2023-04-19T09:33:56.983Z,959.2839
2023-04-19T09:34:58.454Z,959.2692
2023-04-19T09:35:59.902Z,959.2557
2023-04-19T09:37:12.177Z,959.2452
2023-04-19T09:38:06.721Z,959.2347
2023-04-19T09:39:05.934Z,959.2268
2023-04-19T09:40:07.381Z,959.2217
2023-04-19T09:41:08.800Z,959.2152
2023-04-19T09:42:10.260Z,959.2048
2023-04-19T09:44:50.198Z,959.1800
2023-04-19T09:46:17.344Z,959.1796
2023-04-19T09:47:18.716Z,959.1652
2023-04-19T09:48:20.159Z,959.1496
2023-04-19T09:49:33.547Z,959.1409
2023-04-19T09:50:27.288Z,959.1490
2023-04-19T09:51:23.753Z,959.1314
2023-04-19T09:52:25.150Z,959.1318
2023-04-19T09:53:26.528Z,959.1157
2023-04-19T09:54:27.941Z,959.1208
2023-04-19T09:55:31.721Z,959.1043
2023-04-19T09:56:31.350Z,959.0786
2023-04-19T09:57:32.766Z,959.0778
2023-04-19T09:59:35.919Z,959.0637
2023-04-19T10:00:47.996Z,959.0530
2023-04-19T10:01:39.368Z,959.0629
2023-04-19T10:02:40.949Z,959.0709
2023-04-19T10:03:42.619Z,959.0696
2023-04-19T10:05:46.317Z,959.0462
2023-04-19T10:07:07.403Z,959.0530
2023-04-19T10:07:49.874Z,959.0348
2023-04-19T10:08:51.621Z,959.0322
2023-04-19T10:09:55.023Z,959.0327
2023-04-19T10:10:55.236Z,959.0224
2023-04-19T10:12:03.764Z,959.0165
2023-04-19T10:13:15.891Z,959.0124
2023-04-19T10:14:00.900Z,959.0000
2023-04-19T10:15:02.313Z,958.9930
2023-04-19T10:16:15.502Z,958.9769
2023-04-19T10:17:05.794Z,958.9714
2023-04-19T10:18:07.413Z,958.9631
2023-04-19T10:19:10.054Z,958.9539
2023-04-19T10:20:09.224Z,958.9618
2023-04-19T10:21:10.608Z,958.9561
2023-04-19T10:22:11.990Z,958.9561
2023-04-19T10:23:13.487Z,958.9617
2023-04-19T10:24:14.893Z,958.9592
2023-04-19T10:25:16.356Z,958.9604
2023-04-19T10:26:17.765Z,958.9565
2023-04-19T10:27:19.216Z,958.9400
2023-04-19T10:28:20.647Z,958.9382
2023-04-19T10:29:22.074Z,958.9222
2023-04-19T10:30:23.517Z,958.9213
2023-04-19T10:31:24.912Z,958.9039
2023-04-19T10:32:26.380Z,958.9035
2023-04-19T10:33:27.898Z,958.8935
2023-04-19T10:34:29.350Z,958.8809
2023-04-19T10:35:30.753Z,958.8669
2023-04-19T10:36:32.189Z,958.8565
2023-04-19T10:37:33.793Z,958.8461
2023-04-19T10:38:35.329Z,958.8448
2023-04-19T10:39:36.794Z,958.8491
2023-04-19T10:40:38.178Z,958.8400
2023-04-19T10:41:39.654Z,958.8396
2023-04-19T10:42:41.037Z,958.8292
2023-04-19T10:43:42.477Z,958.8226
2023-04-19T10:44:43.866Z,958.8104
2023-04-19T10:45:45.313Z,958.7978
2023-04-19T10:46:46.707Z,958.7839
2023-04-19T10:47:48.195Z,958.7696
2023-04-19T10:48:49.701Z,958.7522
2023-04-19T10:49:51.181Z,958.7557
2023-04-19T10:50:52.634Z,958.7522
2023-04-19T10:51:54.059Z,958.7478
2023-04-19T10:52:55.484Z,958.7469
2023-04-19T10:53:56.940Z,958.7357
2023-04-19T10:54:58.374Z,958.7252
2023-04-19T10:55:59.779Z,958.7048
2023-04-19T10:57:01.201Z,958.6891
2023-04-19T10:58:02.602Z,958.6800
2023-04-19T10:59:04.036Z,958.6617
2023-04-19T11:00:05.471Z,958.6483
2023-04-19T11:01:06.889Z,958.6335
2023-04-19T11:02:08.395Z,958.6226
2023-04-19T11:03:10.086Z,958.6096
2023-04-19T11:04:11.902Z,958.5991
2023-04-19T11:05:13.603Z,958.5874
2023-04-19T11:06:15.014Z,958.5753
2023-04-19T11:07:16.386Z,958.5639
2023-04-19T11:08:17.799Z,958.5430
2023-04-19T11:09:19.260Z,958.5309
2023-04-19T11:10:20.719Z,958.5165
2023-04-19T11:11:22.143Z,958.5022
2023-04-19T11:12:23.597Z,958.4957
2023-04-19T11:13:25.039Z,958.4891
2023-04-19T11:14:26.493Z,958.4843
2023-04-19T11:15:27.969Z,958.4717
2023-04-19T11:16:42.434Z,958.4656
2023-04-19T11:17:31.598Z,958.4562
2023-04-19T11:18:33.301Z,958.4526
2023-04-19T11:19:34.683Z,958.4487
2023-04-19T11:20:36.157Z,958.4474
2023-04-19T11:21:37.554Z,958.4313
2023-04-19T11:22:39.052Z,958.4296
2023-04-19T11:23:40.455Z,958.4139
2023-04-19T11:24:41.873Z,958.4061
2023-04-19T11:25:43.296Z,958.3882
2023-04-19T11:26:44.752Z,958.3561
2023-04-19T11:27:46.230Z,958.3495
2023-04-19T11:28:47.680Z,958.3231
2023-04-19T11:29:49.135Z,958.3182
2023-04-19T11:30:50.622Z,958.2978
2023-04-19T11:31:52.137Z,958.2904
2023-04-19T11:32:53.666Z,958.2861
2023-04-19T11:33:55.439Z,958.2874
2023-04-19T11:34:57.069Z,958.2726
2023-04-19T11:35:58.509Z,958.2766
2023-04-19T11:36:59.938Z,958.2661
2023-04-19T11:38:01.428Z,958.2531
2023-04-19T11:39:02.898Z,958.2391
2023-04-19T11:40:05.104Z,958.2261
2023-04-19T11:41:06.908Z,958.2161
2023-04-19T11:42:08.340Z,958.2104
2023-04-19T11:43:09.710Z,958.2009
2023-04-19T11:44:11.159Z,958.1935
2023-04-19T11:45:25.897Z,958.1843
2023-04-19T11:46:14.737Z,958.1762
2023-04-19T11:47:16.251Z,958.1722
2023-04-19T11:48:17.888Z,958.1682
2023-04-19T11:49:19.348Z,958.1700
2023-04-19T11:50:20.831Z,958.1622
2023-04-19T11:51:22.460Z,958.1561
2023-04-19T11:52:23.913Z,958.1453
2023-04-19T11:53:25.371Z,958.1422
2023-04-19T11:54:26.854Z,958.1396
2023-04-19T11:55:28.272Z,958.1322
2023-04-19T11:56:29.732Z,958.1252
2023-04-19T11:57:31.183Z,958.1187
2023-04-19T11:58:32.617Z,958.1165
2023-04-19T11:59:34.064Z,958.0983
2023-04-19T12:00:35.524Z,958.0896
2023-04-19T12:01:36.918Z,958.0782
2023-04-19T12:02:38.610Z,958.0670
2023-04-19T12:03:40.335Z,958.0591
2023-04-19T12:04:42.205Z,958.0522
2023-04-19T12:05:44.146Z,958.0478
2023-04-19T12:06:45.666Z,958.0396
2023-04-19T12:07:47.124Z,958.0296
2023-04-19T12:08:48.575Z,958.0209
2023-04-19T12:09:50.032Z,958.0078
2023-04-19T12:10:51.519Z,958.0039
2023-04-19T12:11:52.940Z,957.9913